createdAt,value
2023-02-05T00:00:11.772Z,1.30
2023-02-05T00:02:39.755Z,1.57
2023-02-05T00:05:09.804Z,1.27
2023-02-05T00:07:38.084Z,1.37
2023-02-05T00:10:07.379Z,1.53
2023-02-05T00:12:35.356Z,1.97
2023-02-05T00:15:03.361Z,2.13
2023-02-05T00:17:31.345Z,3.03
2023-02-05T00:19:59.333Z,1.80
2023-02-05T00:22:28.653Z,1.80
2023-02-05T00:24:56.617Z,1.90
2023-02-05T00:27:24.625Z,2.23
2023-02-05T00:29:52.630Z,1.60
2023-02-05T00:32:20.617Z,1.57
2023-02-05T00:34:48.743Z,1.73
2023-02-05T00:37:16.781Z,1.67
2023-02-05T00:39:46.068Z,1.70
2023-02-05T00:42:14.041Z,2.20
2023-02-05T00:44:42.062Z,2.00
2023-02-05T00:47:10.023Z,1.83
2023-02-05T00:49:38.045Z,2.00
2023-02-05T00:52:06.381Z,1.63
2023-02-05T00:54:34.385Z,1.80
2023-02-05T00:57:03.784Z,2.00
2023-02-05T00:59:31.794Z,1.60
2023-02-05T01:01:59.748Z,2.00
2023-02-05T01:04:27.804Z,1.80
2023-02-05T01:06:55.802Z,2.00
2023-02-05T01:09:24.291Z,1.80
2023-02-05T01:11:52.264Z,1.93
2023-02-05T01:14:21.644Z,1.53
2023-02-05T01:16:49.633Z,1.87
2023-02-05T01:19:17.600Z,1.47
2023-02-05T01:21:45.750Z,1.97
2023-02-05T01:24:13.801Z,2.00
2023-02-05T01:26:41.743Z,1.23
2023-02-05T01:29:09.716Z,1.40
2023-02-05T01:31:39.083Z,1.83
2023-02-05T01:34:07.111Z,2.40
2023-02-05T01:36:35.149Z,1.50
2023-02-05T01:39:03.141Z,1.37
2023-02-05T01:41:35.082Z,1.70
2023-02-05T01:44:09.021Z,2.10
2023-02-05T01:46:40.278Z,1.70
2023-02-05T01:49:12.140Z,1.57
2023-02-05T01:51:41.695Z,1.83
2023-02-05T01:54:10.046Z,1.80
2023-02-05T01:56:41.999Z,1.30
2023-02-05T01:59:14.623Z,2.10
2023-02-05T02:01:45.209Z,1.90
2023-02-05T02:04:18.126Z,2.80
2023-02-05T02:06:46.219Z,1.40
2023-02-05T02:09:14.410Z,1.47
2023-02-05T02:11:44.922Z,1.53
2023-02-05T02:14:14.384Z,2.50
2023-02-05T02:16:43.708Z,1.70
2023-02-05T02:19:21.269Z,1.73
2023-02-05T02:22:39.726Z,1.70
2023-02-05T02:25:46.014Z,1.40
2023-02-05T02:28:20.631Z,1.57
2023-02-05T02:30:57.485Z,1.47
2023-02-05T02:33:32.619Z,1.97
2023-02-05T02:36:07.797Z,1.40
2023-02-05T02:38:42.712Z,2.07
2023-02-05T02:41:19.972Z,1.60
2023-02-05T02:43:53.661Z,1.60
2023-02-05T02:46:25.820Z,2.30
2023-02-05T02:48:59.224Z,1.67
2023-02-05T02:51:29.270Z,2.30
2023-02-05T02:54:01.254Z,1.60
2023-02-05T02:56:31.266Z,2.50
2023-02-05T02:59:06.214Z,2.23
2023-02-05T03:01:37.529Z,1.40
2023-02-05T03:04:17.410Z,2.10
2023-02-05T03:06:50.648Z,2.27
2023-02-05T03:09:27.153Z,1.83
2023-02-05T03:11:58.430Z,1.80
2023-02-05T03:14:29.134Z,1.83
2023-02-05T03:16:58.091Z,1.90
2023-02-05T03:19:27.217Z,1.70
2023-02-05T03:22:00.595Z,2.20
2023-02-05T03:24:29.918Z,2.57
2023-02-05T03:27:00.123Z,2.03
2023-02-05T03:29:35.687Z,1.77
2023-02-05T03:32:20.394Z,1.53
2023-02-05T03:35:06.598Z,2.17
2023-02-05T03:37:45.707Z,2.70
2023-02-05T03:40:22.051Z,2.33
2023-02-05T03:43:01.810Z,2.13
2023-02-05T03:45:45.426Z,1.80
2023-02-05T03:48:37.873Z,2.37
2023-02-05T03:51:23.648Z,2.17
2023-02-05T03:54:04.989Z,1.97
2023-02-05T03:56:40.744Z,2.30
2023-02-05T03:59:09.506Z,2.03
2023-02-05T04:01:39.010Z,2.53
2023-02-05T04:04:07.216Z,2.53
2023-02-05T04:06:35.245Z,2.20
2023-02-05T04:09:03.281Z,2.27
2023-02-05T04:11:32.861Z,1.90
2023-02-05T04:14:01.254Z,2.20
2023-02-05T04:16:29.312Z,1.83
2023-02-05T04:18:58.677Z,2.40
2023-02-05T04:21:26.724Z,2.47
2023-02-05T04:23:54.840Z,1.20
2023-02-05T04:26:22.821Z,2.23
2023-02-05T04:28:50.748Z,2.10
2023-02-05T04:31:18.731Z,1.67
2023-02-05T04:33:46.799Z,2.10
2023-02-05T04:36:16.127Z,2.53
2023-02-05T04:38:44.132Z,1.93
2023-02-05T04:41:15.191Z,2.17
2023-02-05T04:43:43.168Z,2.30
2023-02-05T04:46:13.141Z,2.70
2023-02-05T04:48:41.504Z,2.53
2023-02-05T04:51:11.384Z,1.77
2023-02-05T04:53:41.364Z,3.40
2023-02-05T04:56:12.511Z,2.80
2023-02-05T04:58:41.263Z,2.10
2023-02-05T05:01:14.321Z,3.13
2023-02-05T05:03:42.438Z,2.50
2023-02-05T05:06:11.733Z,2.93
2023-02-05T05:08:41.172Z,2.60
2023-02-05T05:11:14.741Z,3.10
2023-02-05T05:13:43.844Z,2.80
2023-02-05T05:16:13.301Z,4.03
2023-02-05T05:18:41.716Z,3.77
2023-02-05T05:21:10.173Z,2.90
2023-02-05T05:23:40.302Z,3.17
2023-02-05T05:26:10.452Z,2.87
2023-02-05T05:28:39.212Z,2.93
2023-02-05T05:31:09.628Z,3.20
2023-02-05T05:33:38.657Z,3.90
2023-02-05T05:36:10.259Z,3.80
2023-02-05T05:38:39.772Z,3.60
2023-02-05T05:41:25.478Z,3.27
2023-02-05T05:43:55.238Z,3.53
2023-02-05T05:46:26.954Z,3.10
2023-02-05T05:48:57.326Z,3.77
2023-02-05T05:51:26.822Z,3.90
2023-02-05T05:53:56.756Z,3.67
2023-02-05T05:56:25.119Z,3.83
2023-02-05T05:58:53.200Z,3.90
2023-02-05T06:01:22.927Z,3.30
2023-02-05T06:03:51.125Z,3.93
2023-02-05T06:06:19.135Z,3.77
2023-02-05T06:08:47.203Z,3.57
2023-02-05T06:11:16.604Z,3.43
2023-02-05T06:13:44.548Z,3.33
2023-02-05T06:16:12.618Z,4.03
2023-02-05T06:18:40.665Z,3.30
2023-02-05T06:21:09.718Z,4.07
2023-02-05T06:23:37.764Z,4.00
2023-02-05T06:26:06.094Z,4.70
2023-02-05T06:28:35.561Z,3.50
2023-02-05T06:31:03.618Z,5.07
2023-02-05T06:33:31.689Z,3.73
2023-02-05T06:35:59.643Z,4.70
2023-02-05T06:38:27.741Z,5.50
2023-02-05T06:40:55.764Z,3.87
2023-02-05T06:43:23.713Z,4.00
2023-02-05T06:45:53.199Z,4.43
2023-02-05T06:48:21.184Z,4.37
2023-02-05T06:50:49.156Z,4.43
2023-02-05T06:53:17.086Z,4.50
2023-02-05T06:55:45.052Z,4.90
2023-02-05T06:58:13.041Z,5.53
2023-02-05T07:00:41.042Z,4.67
2023-02-05T07:03:10.426Z,4.97
2023-02-05T07:05:38.386Z,4.50
2023-02-05T07:08:08.174Z,4.30
2023-02-05T07:10:36.206Z,4.47
2023-02-05T07:13:05.934Z,4.27
2023-02-05T07:15:36.772Z,5.27
2023-02-05T07:18:05.867Z,3.47
2023-02-05T07:20:36.685Z,5.03
2023-02-05T07:23:05.478Z,4.13
2023-02-05T07:25:36.490Z,6.43
2023-02-05T07:28:05.382Z,32.33
2023-02-05T07:30:33.543Z,16.53
2023-02-05T07:33:03.491Z,44.07
2023-02-05T07:35:32.702Z,31.30
2023-02-05T07:38:02.240Z,23.60
2023-02-05T07:40:30.226Z,5.10
2023-02-05T07:42:58.259Z,5.93
2023-02-05T07:45:26.272Z,12.67
2023-02-05T07:47:54.774Z,5.10
2023-02-05T07:50:22.792Z,6.43
2023-02-05T07:52:51.123Z,5.80
2023-02-05T07:55:21.606Z,5.17
2023-02-05T07:57:49.587Z,6.80
2023-02-05T08:00:18.122Z,6.93
2023-02-05T08:02:46.168Z,7.43
2023-02-05T08:05:14.158Z,7.17
2023-02-05T08:07:42.649Z,5.90
2023-02-05T08:10:14.449Z,6.20
2023-02-05T08:12:43.808Z,6.23
2023-02-05T08:15:12.077Z,5.80
2023-02-05T08:17:40.302Z,6.43
2023-02-05T08:20:09.898Z,7.30
2023-02-05T08:22:40.442Z,6.40
2023-02-05T08:25:12.037Z,7.30
2023-02-05T08:27:44.761Z,7.33
2023-02-05T08:30:16.799Z,5.50
2023-02-05T08:32:49.171Z,6.50
2023-02-05T08:35:17.520Z,6.70
2023-02-05T08:37:45.524Z,7.00
2023-02-05T08:40:15.046Z,6.43
2023-02-05T08:42:44.379Z,5.70
2023-02-05T08:45:12.504Z,5.60
2023-02-05T08:47:40.495Z,6.23
2023-02-05T08:50:10.519Z,6.43
2023-02-05T08:52:38.678Z,7.93
2023-02-05T08:55:07.226Z,7.33
2023-02-05T08:57:35.211Z,5.70
2023-02-05T09:00:05.386Z,6.27
2023-02-05T09:02:33.485Z,7.13
2023-02-05T09:05:09.075Z,8.07
2023-02-05T09:07:39.245Z,7.33
2023-02-05T09:10:09.885Z,10.20
2023-02-05T09:12:38.275Z,8.93
2023-02-05T09:15:09.417Z,10.30
2023-02-05T09:17:37.610Z,10.53
2023-02-05T09:20:06.312Z,8.43
2023-02-05T09:22:34.362Z,9.80
2023-02-05T09:25:02.372Z,11.57
2023-02-05T09:27:31.079Z,10.30
2023-02-05T09:29:59.365Z,8.60
2023-02-05T09:32:28.789Z,9.87
2023-02-05T09:34:56.851Z,7.77
2023-02-05T09:37:24.827Z,8.00
2023-02-05T09:40:19.422Z,8.70
2023-02-05T09:42:53.481Z,8.90
2023-02-05T09:45:39.950Z,9.13
2023-02-05T09:48:35.232Z,7.67
2023-02-05T09:51:03.521Z,8.60
2023-02-05T09:53:43.473Z,8.27
2023-02-05T09:56:13.659Z,8.30
2023-02-05T09:58:45.303Z,8.77
2023-02-05T10:01:21.310Z,9.60
2023-02-05T10:03:56.236Z,9.17
2023-02-05T10:06:41.715Z,9.27
2023-02-05T10:09:34.464Z,8.47
2023-02-05T10:12:15.302Z,8.50
2023-02-05T10:14:58.603Z,9.00
2023-02-05T10:17:47.194Z,8.60
2023-02-05T10:20:34.342Z,9.00
2023-02-05T10:23:16.679Z,9.70
2023-02-05T10:26:08.733Z,9.87
2023-02-05T10:29:23.698Z,9.80
2023-02-05T10:32:16.107Z,10.97
2023-02-05T10:35:01.384Z,8.30
2023-02-05T10:37:41.829Z,8.90
2023-02-05T10:40:16.395Z,8.10
2023-02-05T10:42:48.996Z,8.63
2023-02-05T10:45:22.489Z,9.80
2023-02-05T10:48:06.454Z,9.40
2023-02-05T10:50:54.747Z,8.70
2023-02-05T10:53:27.171Z,12.10
2023-02-05T10:55:56.103Z,13.23
2023-02-05T10:58:41.094Z,11.57
2023-02-05T11:01:16.593Z,10.10
2023-02-05T11:03:55.202Z,12.07
2023-02-05T11:06:26.627Z,8.50
2023-02-05T11:08:56.124Z,8.00
2023-02-05T11:11:28.902Z,9.67
2023-02-05T11:14:00.668Z,9.13
2023-02-05T11:16:39.025Z,8.27
2023-02-05T11:19:21.993Z,8.87
2023-02-05T11:21:55.499Z,8.60
2023-02-05T11:24:29.425Z,8.90
2023-02-05T11:27:29.121Z,8.80
2023-02-05T11:30:00.897Z,9.97
2023-02-05T11:32:38.054Z,9.30
2023-02-05T11:35:24.287Z,9.33
2023-02-05T11:38:01.796Z,9.57
2023-02-05T11:40:33.508Z,8.27
2023-02-05T11:43:08.139Z,11.07
2023-02-05T11:45:39.982Z,10.40
2023-02-05T11:48:23.156Z,8.70
2023-02-05T11:50:51.205Z,9.60
2023-02-05T11:53:21.024Z,9.00
2023-02-05T11:55:58.032Z,12.80
2023-02-05T11:58:36.578Z,19.83
2023-02-05T12:01:08.956Z,11.83
2023-02-05T12:03:37.074Z,9.00
2023-02-05T12:06:17.890Z,8.33
2023-02-05T12:08:50.140Z,9.77
2023-02-05T12:12:04.338Z,9.33
2023-02-05T12:14:45.827Z,10.10
2023-02-05T12:17:33.110Z,10.53
2023-02-05T12:20:15.721Z,8.50
2023-02-05T12:23:23.214Z,7.67
2023-02-05T12:26:10.908Z,9.67
2023-02-05T12:28:51.677Z,10.00
2023-02-05T12:31:27.918Z,8.93
2023-02-05T12:34:17.336Z,9.10
2023-02-05T12:37:05.321Z,7.87
2023-02-05T12:39:41.904Z,9.90
2023-02-05T12:42:25.894Z,9.33
2023-02-05T12:45:14.141Z,9.70
2023-02-05T12:47:58.724Z,11.60
2023-02-05T12:50:54.332Z,8.97
2023-02-05T12:53:44.056Z,10.17
2023-02-05T12:56:38.157Z,9.40
2023-02-05T12:59:14.178Z,8.50
2023-02-05T13:01:50.047Z,8.77
2023-02-05T13:04:24.960Z,7.40
2023-02-05T13:06:59.689Z,4.20
2023-02-05T13:09:37.459Z,2.30
2023-02-05T13:12:11.718Z,3.57
2023-02-05T13:14:45.486Z,4.73
2023-02-05T13:17:20.380Z,6.73
2023-02-05T13:19:53.182Z,1.20
2023-02-05T13:22:42.255Z,1.07
2023-02-05T13:25:38.932Z,0.90
2023-02-05T13:28:42.423Z,0.80
2023-02-05T13:31:26.087Z,1.10
2023-02-05T13:33:58.255Z,1.23
2023-02-05T13:37:02.527Z,1.00
2023-02-05T13:40:11.323Z,1.00
2023-02-05T13:43:08.704Z,0.70
2023-02-05T13:46:14.659Z,1.00
2023-02-05T13:49:26.892Z,0.80
2023-02-05T13:52:24.123Z,0.80
2023-02-05T13:55:21.501Z,0.90
2023-02-05T13:58:24.493Z,0.80
2023-02-05T14:01:03.913Z,0.70
2023-02-05T14:03:39.090Z,0.63
2023-02-05T14:06:22.503Z,1.20
2023-02-05T14:09:00.800Z,0.80
2023-02-05T14:11:30.137Z,0.80
2023-02-05T14:14:27.112Z,0.60
2023-02-05T14:16:56.698Z,0.70
2023-02-05T14:19:28.576Z,0.70
2023-02-05T14:22:03.536Z,0.67
2023-02-05T14:24:50.641Z,0.80
2023-02-05T14:27:52.329Z,1.00
2023-02-05T14:30:47.975Z,0.73
2023-02-05T14:33:38.507Z,8.17
2023-02-05T14:36:40.767Z,1.00
2023-02-05T14:39:23.082Z,1.03
2023-02-05T14:41:59.459Z,1.07
2023-02-05T14:44:31.362Z,0.93
2023-02-05T14:47:07.046Z,0.90
2023-02-05T14:49:42.960Z,3.37
2023-02-05T14:52:28.296Z,2.60
2023-02-05T14:55:01.311Z,5.17
2023-02-05T14:57:42.791Z,2.50
2023-02-05T15:00:30.480Z,1.20
2023-02-05T15:03:28.690Z,0.90
2023-02-05T15:06:03.401Z,1.00
2023-02-05T15:08:46.640Z,1.30
2023-02-05T15:11:25.031Z,1.17
2023-02-05T15:14:41.586Z,0.83
2023-02-05T15:17:47.602Z,1.10
2023-02-05T15:20:23.987Z,0.70
2023-02-05T15:22:58.952Z,0.70
2023-02-05T15:25:39.937Z,1.10
2023-02-05T15:28:26.091Z,0.50
2023-02-05T15:31:18.431Z,1.00
2023-02-05T15:34:03.288Z,0.60
2023-02-05T15:36:40.902Z,0.83
2023-02-05T15:39:20.697Z,0.70
2023-02-05T15:41:49.284Z,2.00
2023-02-05T15:44:29.333Z,0.97
2023-02-05T15:47:02.029Z,0.90
2023-02-05T15:49:37.286Z,1.30
2023-02-05T15:52:06.772Z,3.33
2023-02-05T15:54:37.385Z,1.40
2023-02-05T15:57:06.915Z,0.60
2023-02-05T15:59:35.803Z,3.00
2023-02-05T16:02:10.040Z,1.57
2023-02-05T16:04:39.994Z,1.50
2023-02-05T16:07:21.950Z,1.33
2023-02-05T16:09:53.893Z,1.40
2023-02-05T16:12:22.098Z,0.80
2023-02-05T16:15:00.476Z,1.17
2023-02-05T16:17:38.063Z,1.43
2023-02-05T16:20:22.282Z,1.20
2023-02-05T16:22:55.328Z,0.90
2023-02-05T16:25:38.555Z,0.60
2023-02-05T16:28:14.469Z,0.93
2023-02-05T16:30:44.819Z,1.40
2023-02-05T16:33:28.933Z,0.90
2023-02-05T16:36:01.732Z,1.20
2023-02-05T16:38:30.366Z,1.10
2023-02-05T16:41:01.531Z,1.00
2023-02-05T16:43:37.120Z,0.70
2023-02-05T16:46:36.380Z,1.50
2023-02-05T16:49:31.600Z,2.60
2023-02-05T16:52:00.230Z,1.87
2023-02-05T16:54:41.791Z,3.10
2023-02-05T16:57:15.488Z,1.47
2023-02-05T16:59:54.032Z,1.57
2023-02-05T17:02:29.705Z,1.40
2023-02-05T17:05:02.072Z,1.30
2023-02-05T17:07:31.292Z,1.20
2023-02-05T17:10:20.268Z,1.30
2023-02-05T17:12:54.173Z,5.17
2023-02-05T17:15:36.952Z,6.70
2023-02-05T17:18:31.217Z,2.60
2023-02-05T17:21:26.909Z,2.93
2023-02-05T17:23:57.146Z,3.33
2023-02-05T17:26:27.482Z,4.97
2023-02-05T17:28:59.350Z,3.00
2023-02-05T17:31:29.581Z,1.90
2023-02-05T17:34:00.288Z,2.27
2023-02-05T17:36:29.833Z,2.03
2023-02-05T17:38:58.495Z,4.17
2023-02-05T17:41:47.333Z,4.40
2023-02-05T17:44:19.383Z,3.30
2023-02-05T17:46:48.085Z,3.43
2023-02-05T17:49:16.542Z,2.93
2023-02-05T17:51:46.712Z,2.57
2023-02-05T17:54:18.262Z,5.07
2023-02-05T17:56:48.432Z,3.97
2023-02-05T17:59:19.760Z,2.27
2023-02-05T18:01:49.023Z,1.77
2023-02-05T18:04:18.723Z,2.53
2023-02-05T18:06:49.918Z,2.27
2023-02-05T18:09:20.873Z,2.30
2023-02-05T18:11:49.472Z,2.17
2023-02-05T18:14:18.042Z,1.77
2023-02-05T18:16:46.938Z,2.30
2023-02-05T18:19:15.810Z,2.00
2023-02-05T18:21:47.100Z,1.90
2023-02-05T18:24:16.964Z,2.10
2023-02-05T18:26:48.558Z,2.07
2023-02-05T18:29:18.184Z,1.77
2023-02-05T18:31:47.512Z,2.30
2023-02-05T18:34:17.252Z,1.63
2023-02-05T18:36:49.124Z,1.93
2023-02-05T18:39:20.423Z,1.93
2023-02-05T18:41:50.020Z,2.17
2023-02-05T18:44:19.114Z,2.10
2023-02-05T18:46:48.700Z,2.13
2023-02-05T18:49:18.283Z,2.80
2023-02-05T18:51:48.201Z,2.90
2023-02-05T18:54:19.012Z,2.30
2023-02-05T18:56:49.198Z,2.40
2023-02-05T18:59:21.407Z,5.10
2023-02-05T19:01:50.909Z,4.70
2023-02-05T19:04:27.192Z,2.57
2023-02-05T19:06:56.283Z,5.53
2023-02-05T19:09:28.105Z,3.77
2023-02-05T19:11:57.762Z,2.73
2023-02-05T19:14:28.231Z,3.03
2023-02-05T19:16:57.838Z,2.00
2023-02-05T19:19:27.999Z,2.37
2023-02-05T19:22:00.103Z,3.27
2023-02-05T19:24:31.021Z,2.67
2023-02-05T19:27:01.016Z,2.50
2023-02-05T19:29:30.703Z,2.37
2023-02-05T19:31:59.835Z,1.70
2023-02-05T19:34:30.245Z,2.20
2023-02-05T19:37:01.029Z,2.20
2023-02-05T19:39:32.063Z,2.10
2023-02-05T19:42:03.009Z,3.70
2023-02-05T19:44:32.667Z,1.70
2023-02-05T19:47:02.582Z,1.70
2023-02-05T19:49:32.374Z,2.37
2023-02-05T19:52:02.012Z,2.37
2023-02-05T19:54:32.585Z,1.90
2023-02-05T19:57:01.591Z,2.00
2023-02-05T19:59:31.159Z,2.57
2023-02-05T20:02:00.155Z,1.93
2023-02-05T20:04:30.642Z,1.80
2023-02-05T20:07:00.954Z,1.77
2023-02-05T20:09:32.659Z,1.60
2023-02-05T20:12:02.103Z,1.73
2023-02-05T20:14:31.422Z,1.57
2023-02-05T20:17:00.148Z,2.00
2023-02-05T20:19:29.966Z,1.57
2023-02-05T20:21:59.084Z,1.43
2023-02-05T20:24:28.193Z,1.57
2023-02-05T20:26:58.784Z,1.53
2023-02-05T20:29:44.938Z,1.67
2023-02-05T20:32:14.444Z,1.80
2023-02-05T20:34:47.913Z,1.70
2023-02-05T20:37:19.467Z,1.87
2023-02-05T20:39:48.742Z,1.57
2023-02-05T20:42:19.300Z,1.63
2023-02-05T20:44:48.206Z,1.57
2023-02-05T20:47:17.632Z,1.97
2023-02-05T20:49:46.840Z,1.60
2023-02-05T20:52:15.933Z,1.43
2023-02-05T20:54:45.191Z,1.50
2023-02-05T20:57:14.745Z,1.43
2023-02-05T20:59:46.108Z,1.50
2023-02-05T21:02:16.101Z,1.97
2023-02-05T21:04:45.109Z,2.13
2023-02-05T21:07:14.182Z,2.23
2023-02-05T21:09:43.341Z,1.20
2023-02-05T21:12:12.381Z,1.57
2023-02-05T21:14:41.237Z,1.87
2023-02-05T21:17:12.135Z,2.17
2023-02-05T21:19:41.917Z,2.30
2023-02-05T21:22:10.851Z,1.90
2023-02-05T21:24:39.103Z,2.10
2023-02-05T21:27:08.207Z,2.00
2023-02-05T21:29:37.745Z,1.73
2023-02-05T21:32:08.196Z,1.80
2023-02-05T21:34:41.890Z,2.47
2023-02-05T21:37:11.120Z,1.90
2023-02-05T21:39:41.374Z,2.10
2023-02-05T21:42:10.451Z,2.07
2023-02-05T21:44:39.649Z,1.63
2023-02-05T21:47:08.450Z,2.10
2023-02-05T21:49:38.811Z,2.27
2023-02-05T21:52:07.909Z,2.00
2023-02-05T21:54:37.398Z,2.50
2023-02-05T21:57:09.024Z,1.83
2023-02-05T21:59:38.154Z,2.13
2023-02-05T22:02:06.218Z,1.60
2023-02-05T22:04:34.943Z,1.60
2023-02-05T22:07:04.943Z,1.60
2023-02-05T22:09:34.076Z,1.67
2023-02-05T22:12:03.960Z,1.53
2023-02-05T22:14:33.148Z,1.87
2023-02-05T22:17:02.459Z,1.30
2023-02-05T22:19:32.357Z,1.83
2023-02-05T22:22:01.308Z,2.17
2023-02-05T22:24:32.176Z,2.00
2023-02-05T22:27:01.414Z,2.20
2023-02-05T22:29:31.094Z,1.43
2023-02-05T22:32:02.195Z,1.80
2023-02-05T22:34:32.216Z,1.57
2023-02-05T22:37:02.057Z,1.73
2023-02-05T22:39:33.310Z,1.83
2023-02-05T22:42:04.356Z,2.00
2023-02-05T22:44:33.947Z,2.10
2023-02-05T22:47:03.222Z,1.67
2023-02-05T22:49:32.272Z,1.30
2023-02-05T22:52:01.091Z,1.47
2023-02-05T22:54:31.685Z,1.70
2023-02-05T22:57:00.550Z,1.87
2023-02-05T22:59:30.087Z,1.60
2023-02-05T23:01:59.559Z,2.03
2023-02-05T23:04:28.912Z,1.70
2023-02-05T23:06:58.127Z,1.50
2023-02-05T23:09:27.270Z,2.07
2023-02-05T23:11:57.982Z,1.90
2023-02-05T23:14:27.342Z,3.23
2023-02-05T23:16:56.871Z,5.40
2023-02-05T23:19:26.225Z,6.50
2023-02-05T23:21:55.027Z,7.50
2023-02-05T23:24:24.551Z,7.60
2023-02-05T23:26:55.032Z,7.67
2023-02-05T23:29:27.421Z,8.40
2023-02-05T23:31:57.644Z,7.93
2023-02-05T23:34:26.808Z,7.10
2023-02-05T23:36:59.893Z,8.20
2023-02-05T23:39:28.807Z,10.57
2023-02-05T23:41:57.701Z,8.43
2023-02-05T23:44:28.425Z,9.33
2023-02-05T23:46:57.500Z,9.10
2023-02-05T23:49:27.550Z,9.57
2023-02-05T23:51:57.537Z,8.03
2023-02-05T23:54:27.250Z,8.70
2023-02-05T23:56:57.311Z,10.00
2023-02-05T23:59:28.022Z,8.90
